Time;durP1;ratioP1;P1;durP2;ratioP2;P2;SDS_P1;SDS_P2;PMS_P1;PMS_P2;Temp;Humidity;BMP_temperature;BMP_pressure;BME280_temperature;BME280_humidity;BME280_pressure;Samples;Min_cycle;Max_cycle;Signal;HPM_P1;HPM_P2
2023/05/19 00:01:48;;;;;;;14.43;8.70;;;25.20;55.70;;;;;;5121339;27;20178;-66
2023/05/19 00:04:14;;;;;;;13.05;7.80;;;25.10;55.90;;;;;;5113496;28;20498;-67
2023/05/19 00:06:41;;;;;;;10.80;7.28;;;25.00;55.80;;;;;;5108612;28;20441;-66
2023/05/19 00:09:08;;;;;;;15.52;7.90;;;25.10;55.70;;;;;;5088362;28;20034;-66
2023/05/19 00:11:36;;;;;;;10.75;8.43;;;25.10;55.70;;;;;;5101092;28;20028;-66
2023/05/19 00:14:05;;;;;;;10.98;8.55;;;25.10;55.80;;;;;;5106277;27;20039;-66
2023/05/19 00:16:32;;;;;;;12.77;8.57;;;25.10;55.80;;;;;;5101245;28;20074;-66
2023/05/19 00:18:58;;;;;;;11.50;7.43;;;25.00;55.90;;;;;;5107026;28;20019;-66
2023/05/19 00:21:25;;;;;;;11.55;7.43;;;25.00;56.00;;;;;;5106052;28;20059;-66
2023/05/19 00:23:51;;;;;;;12.25;8.27;;;25.00;56.00;;;;;;5098812;28;20483;-66
2023/05/19 00:26:17;;;;;;;11.48;7.65;;;25.00;56.00;;;;;;5090991;28;20112;-66
2023/05/19 00:28:53;;;;;;;13.07;8.45;;;24.90;56.10;;;;;;5102563;28;20548;-66
2023/05/19 00:31:20;;;;;;;10.50;7.93;;;24.70;56.00;;;;;;5109050;28;20092;-66
2023/05/19 00:33:46;;;;;;;12.15;7.75;;;24.70;55.90;;;;;;5090638;28;20131;-66
2023/05/19 00:36:12;;;;;;;12.32;7.07;;;24.80;56.40;;;;;;5097198;28;20110;-66
2023/05/19 00:38:38;;;;;;;12.00;8.18;;;24.70;56.60;;;;;;5106282;28;20040;-66
2023/05/19 00:41:05;;;;;;;12.63;8.13;;;24.90;56.80;;;;;;5104689;28;20531;-66
2023/05/19 00:43:34;;;;;;;11.95;8.38;;;24.70;56.80;;;;;;5101670;28;20034;-66
2023/05/19 00:46:01;;;;;;;11.13;8.02;;;24.70;56.80;;;;;;5101388;28;20081;-67
2023/05/19 00:48:27;;;;;;;11.02;8.13;;;24.80;56.90;;;;;;5090451;28;20043;-66
2023/05/19 00:51:02;;;;;;;12.55;8.50;;;24.70;57.00;;;;;;5106921;28;20024;-66
2023/05/19 00:53:30;;;;;;;13.27;8.82;;;24.80;57.00;;;;;;5064438;28;20048;-66
2023/05/19 00:55:57;;;;;;;12.32;8.65;;;24.90;57.00;;;;;;5052160;28;20599;-66
2023/05/19 00:58:28;;;;;;;14.35;8.10;;;24.80;57.00;;;;;;5055633;28;20397;-66
2023/05/19 01:01:02;;;;;;;14.70;8.63;;;24.70;57.00;;;;;;5055883;28;20524;-66
2023/05/19 01:03:33;;;;;;;11.65;8.15;;;24.80;56.80;;;;;;5082873;28;20047;-66
2023/05/19 01:06:06;;;;;;;12.15;8.52;;;24.80;56.70;;;;;;5069329;28;20047;-66
2023/05/19 01:08:33;;;;;;;13.32;7.45;;;24.90;56.80;;;;;;5050958;28;20040;-66
2023/05/19 01:10:59;;;;;;;12.73;8.77;;;24.90;56.70;;;;;;5084820;28;20055;-66
2023/05/19 01:13:27;;;;;;;11.65;8.45;;;24.90;56.40;;;;;;5071686;28;20040;-66
2023/05/19 01:16:07;;;;;;;13.05;7.47;;;24.70;56.50;;;;;;5067915;28;20043;-66
2023/05/19 01:18:46;;;;;;;11.70;8.07;;;24.80;56.60;;;;;;5068013;28;20037;-66
2023/05/19 01:21:45;;;;;;;11.77;7.15;;;24.70;55.90;;;;;;5068314;28;20691;-66
2023/05/19 01:24:33;;;;;;;11.80;7.20;;;24.90;55.90;;;;;;5075847;28;20059;-66
2023/05/19 01:27:20;;;;;;;11.02;7.95;;;24.70;56.30;;;;;;5111908;28;20035;-66
2023/05/19 01:30:24;;;;;;;11.45;7.88;;;24.70;56.80;;;;;;5108024;28;20479;-66
2023/05/19 01:32:53;;;;;;;12.88;8.75;;;24.70;56.90;;;;;;5093385;28;20036;-66
2023/05/19 01:35:24;;;;;;;14.40;8.50;;;24.60;56.90;;;;;;5103356;28;20398;-67
2023/05/19 01:37:54;;;;;;;14.63;7.47;;;24.80;56.80;;;;;;5111504;28;20042;-66
2023/05/19 01:40:22;;;;;;;12.93;8.48;;;24.70;57.00;;;;;;5104308;28;20445;-66
2023/05/19 01:42:52;;;;;;;16.23;9.57;;;24.80;56.90;;;;;;5105431;27;20044;-66
2023/05/19 01:45:19;;;;;;;13.95;8.48;;;24.70;57.00;;;;;;5104927;28;20034;-66
2023/05/19 01:47:49;;;;;;;12.07;8.35;;;24.70;57.10;;;;;;5104225;28;20114;-66
2023/05/19 01:50:15;;;;;;;12.27;7.75;;;24.70;57.10;;;;;;5106753;28;20055;-66
2023/05/19 01:52:42;;;;;;;12.75;8.32;;;24.70;57.10;;;;;;5101144;28;20527;-67
2023/05/19 01:55:09;;;;;;;10.07;7.93;;;24.90;57.10;;;;;;5099457;28;20039;-66
2023/05/19 01:58:00;;;;;;;18.80;8.93;;;24.80;57.00;;;;;;5106027;28;20024;-66
2023/05/19 02:00:49;;;;;;;14.10;7.43;;;24.70;56.80;;;;;;5055329;28;20427;-66
2023/05/19 02:03:56;;;;;;;14.55;8.70;;;24.70;57.20;;;;;;5006783;28;20396;-66
2023/05/19 02:06:43;;;;;;;15.30;9.45;;;24.80;57.10;;;;;;5025569;28;20531;-66
2023/05/19 02:09:11;;;;;;;15.10;8.95;;;24.80;57.10;;;;;;5004161;28;20484;-66
2023/05/19 02:11:45;;;;;;;12.18;9.27;;;24.70;57.00;;;;;;5029612;28;20053;-66
2023/05/19 02:14:40;;;;;;;14.52;8.68;;;24.70;57.10;;;;;;5010524;28;20145;-66
2023/05/19 02:17:09;;;;;;;16.95;10.02;;;24.70;57.20;;;;;;5020135;28;20056;-66
2023/05/19 02:19:38;;;;;;;13.95;9.40;;;24.70;57.30;;;;;;5016834;28;20053;-66
2023/05/19 02:22:05;;;;;;;17.33;9.07;;;24.60;57.20;;;;;;5042253;28;20495;-66
2023/05/19 02:24:31;;;;;;;17.40;9.32;;;24.60;57.20;;;;;;5041214;28;20076;-66
2023/05/19 02:26:59;;;;;;;13.48;8.68;;;24.50;57.40;;;;;;5044781;28;20068;-66
2023/05/19 02:29:25;;;;;;;14.45;9.35;;;24.70;57.60;;;;;;5037718;28;20037;-66
2023/05/19 02:31:51;;;;;;;15.32;9.05;;;24.60;57.50;;;;;;5042066;28;20564;-66
2023/05/19 02:34:18;;;;;;;18.77;10.15;;;24.60;57.60;;;;;;5023507;28;20683;-67
2023/05/19 02:36:44;;;;;;;14.75;10.02;;;24.50;57.40;;;;;;5044443;28;20068;-67
2023/05/19 02:39:11;;;;;;;22.15;10.05;;;24.60;57.70;;;;;;5032382;28;20037;-66
2023/05/19 02:41:37;;;;;;;16.67;9.80;;;24.70;57.80;;;;;;5104396;28;20064;-66
2023/05/19 02:44:04;;;;;;;16.70;10.18;;;24.70;57.60;;;;;;5097585;28;20619;-66
2023/05/19 02:46:30;;;;;;;20.95;10.13;;;24.50;57.60;;;;;;5093849;28;20746;-66
2023/05/19 02:48:56;;;;;;;18.98;9.40;;;24.60;57.70;;;;;;5111142;28;20032;-66
2023/05/19 02:51:22;;;;;;;15.50;9.35;;;24.70;57.80;;;;;;5094064;28;20150;-66
2023/05/19 02:53:48;;;;;;;19.00;10.43;;;24.70;57.60;;;;;;5079254;28;20047;-66
2023/05/19 02:56:14;;;;;;;23.80;9.43;;;24.70;57.50;;;;;;5105834;28;20035;-66
2023/05/19 02:58:41;;;;;;;16.15;9.68;;;24.60;57.10;;;;;;5104212;28;20927;-66
2023/05/19 03:01:08;;;;;;;20.00;10.23;;;24.70;57.60;;;;;;5095375;28;20127;-67
2023/05/19 03:03:35;;;;;;;17.83;10.60;;;24.70;57.50;;;;;;5100634;28;20039;-66
2023/05/19 03:06:01;;;;;;;17.23;9.93;;;24.60;57.50;;;;;;5093688;28;20042;-66
2023/05/19 03:08:27;;;;;;;16.40;9.55;;;24.70;57.80;;;;;;5113044;28;20023;-66
2023/05/19 03:10:53;;;;;;;13.93;9.52;;;24.50;57.70;;;;;;5105616;28;20032;-68
2023/05/19 03:13:19;;;;;;;22.40;10.88;;;24.60;57.90;;;;;;5107724;28;20035;-66
2023/05/19 03:15:46;;;;;;;12.85;7.88;;;24.50;57.50;;;;;;5101724;28;20038;-67
2023/05/19 03:18:12;;;;;;;15.18;8.82;;;24.50;57.90;;;;;;5111364;28;20031;-66
2023/05/19 03:20:38;;;;;;;17.10;9.82;;;24.60;57.60;;;;;;5099405;28;20428;-66
2023/05/19 03:23:05;;;;;;;15.70;8.32;;;24.70;57.70;;;;;;5080463;28;20056;-66
2023/05/19 03:25:31;;;;;;;14.80;9.85;;;24.50;57.60;;;;;;5101681;28;20403;-66
2023/05/19 03:27:57;;;;;;;14.35;8.45;;;24.60;57.50;;;;;;5109738;28;20494;-66
2023/05/19 03:30:23;;;;;;;14.85;9.18;;;24.60;57.60;;;;;;5102250;28;20062;-66
2023/05/19 03:33:16;;;;;;;19.02;10.43;;;24.70;57.40;;;;;;5061708;28;20041;-66
2023/05/19 03:35:43;;;;;;;15.43;9.30;;;24.70;57.50;;;;;;5051031;28;20124;-66
2023/05/19 03:38:10;;;;;;;19.48;10.32;;;24.70;57.40;;;;;;5070783;28;20507;-66
2023/05/19 03:40:36;;;;;;;17.38;8.52;;;24.70;57.50;;;;;;5047759;28;20037;-66
2023/05/19 03:43:07;;;;;;;14.95;9.18;;;24.90;57.40;;;;;;5066661;28;20044;-66
2023/05/19 03:45:40;;;;;;;;;;;24.90;57.50;;;;;;5061479;28;20033;-67
2023/05/19 03:48:26;;;;;;;20.00;9.80;;;24.90;57.40;;;;;;5069026;28;20410;-66
2023/05/19 03:51:11;;;;;;;21.27;9.57;;;24.70;56.80;;;;;;5068638;28;20053;-66
2023/05/19 03:53:37;;;;;;;16.67;8.07;;;24.70;57.20;;;;;;5033938;28;20393;-66
2023/05/19 03:56:03;;;;;;;13.25;10.07;;;24.80;57.40;;;;;;5034848;28;20038;-66
2023/05/19 03:58:30;;;;;;;28.63;11.45;;;24.70;57.00;;;;;;5065707;28;20079;-66
2023/05/19 04:00:56;;;;;;;20.55;9.88;;;24.70;55.90;;;;;;5037590;28;20491;-66
2023/05/19 04:03:22;;;;;;;17.70;10.05;;;24.60;56.90;;;;;;5052822;28;20058;-66
2023/05/19 04:05:48;;;;;;;19.52;10.13;;;24.70;57.10;;;;;;5051174;28;20040;-66
2023/05/19 04:08:14;;;;;;;19.10;10.48;;;24.60;57.00;;;;;;5070259;28;20048;-66
2023/05/19 04:10:40;;;;;;;18.00;10.50;;;24.60;56.80;;;;;;5058232;28;20110;-66
2023/05/19 04:13:06;;;;;;;22.65;10.32;;;24.60;57.80;;;;;;5103993;28;20659;-66
2023/05/19 04:15:32;;;;;;;19.00;10.05;;;24.50;57.70;;;;;;5099541;28;20040;-66
2023/05/19 04:17:59;;;;;;;11.88;8.15;;;24.50;57.80;;;;;;5101427;28;20035;-66
2023/05/19 04:20:25;;;;;;;14.90;9.35;;;24.50;58.00;;;;;;5113160;28;20059;-66
2023/05/19 04:22:51;;;;;;;15.15;10.00;;;24.60;58.00;;;;;;5113308;28;20140;-66
2023/05/19 04:25:18;;;;;;;16.30;9.75;;;24.50;57.00;;;;;;5104009;28;20085;-66
2023/05/19 04:27:45;;;;;;;15.50;8.82;;;24.40;58.00;;;;;;5098002;28;20032;-66
2023/05/19 04:30:11;;;;;;;19.65;11.18;;;24.50;57.60;;;;;;5091038;28;20035;-66
2023/05/19 04:32:40;;;;;;;20.60;9.63;;;24.60;58.20;;;;;;5109702;28;20376;-66
2023/05/19 04:35:06;;;;;;;21.65;10.40;;;24.60;58.10;;;;;;5109762;28;20147;-66
2023/05/19 04:37:36;;;;;;;16.80;9.60;;;24.60;57.90;;;;;;5112914;28;20035;-66
2023/05/19 04:40:04;;;;;;;22.15;10.77;;;24.60;58.10;;;;;;5107067;28;20424;-66
2023/05/19 04:42:31;;;;;;;19.10;9.95;;;24.50;57.80;;;;;;5089539;28;20036;-67
2023/05/19 04:44:59;;;;;;;16.83;10.07;;;24.50;57.60;;;;;;5085127;28;20040;-66
2023/05/19 04:47:28;;;;;;;20.77;9.90;;;24.60;58.10;;;;;;5073007;28;20453;-66
2023/05/19 04:49:55;;;;;;;18.45;10.43;;;24.60;57.20;;;;;;5099275;28;20028;-66
2023/05/19 04:52:21;;;;;;;18.65;10.60;;;24.50;57.70;;;;;;5092262;28;20036;-67
2023/05/19 04:54:47;;;;;;;17.95;9.10;;;24.60;57.70;;;;;;5092598;28;20658;-66
2023/05/19 04:57:13;;;;;;;18.33;10.40;;;24.40;57.80;;;;;;5090026;28;20059;-66
2023/05/19 04:59:39;;;;;;;17.63;9.88;;;24.50;57.40;;;;;;5099165;28;20063;-69
2023/05/19 05:02:07;;;;;;;18.52;9.25;;;24.50;57.60;;;;;;5105094;28;20112;-67
2023/05/19 05:04:35;;;;;;;21.58;10.20;;;24.40;57.60;;;;;;5088827;28;20028;-66
2023/05/19 05:07:01;;;;;;;20.58;9.13;;;24.40;58.00;;;;;;5089820;28;20494;-67
2023/05/19 05:09:28;;;;;;;12.68;8.15;;;24.30;57.50;;;;;;5090861;28;20032;-66
2023/05/19 05:11:56;;;;;;;15.82;8.43;;;24.40;57.80;;;;;;5089731;28;20081;-66
2023/05/19 05:14:23;;;;;;;19.55;8.85;;;24.40;58.10;;;;;;5100648;28;20039;-66
2023/05/19 05:16:50;;;;;;;18.00;8.65;;;24.50;58.40;;;;;;5102324;28;20028;-66
2023/05/19 05:19:21;;;;;;;15.85;8.57;;;24.30;57.50;;;;;;5088164;28;20486;-66
2023/05/19 05:21:48;;;;;;;15.15;9.13;;;24.50;57.80;;;;;;5083214;28;20044;-67
2023/05/19 05:24:15;;;;;;;14.70;8.38;;;24.50;57.80;;;;;;5073472;28;20039;-66
2023/05/19 05:26:46;;;;;;;15.65;8.43;;;24.50;57.60;;;;;;5092140;28;20461;-67
2023/05/19 05:29:12;;;;;;;19.13;9.02;;;24.50;58.00;;;;;;5088960;28;20089;-66
2023/05/19 05:31:38;;;;;;;12.35;8.40;;;24.70;58.10;;;;;;5092081;28;20426;-66
2023/05/19 05:34:06;;;;;;;15.40;9.35;;;24.60;58.00;;;;;;5090176;28;20048;-66
2023/05/19 05:36:33;;;;;;;12.32;7.85;;;24.70;57.30;;;;;;5090825;28;20039;-66
2023/05/19 05:39:01;;;;;;;16.77;7.80;;;24.60;57.70;;;;;;5091088;28;20039;-66
2023/05/19 05:41:34;;;;;;;17.52;10.13;;;24.60;57.40;;;;;;5088674;28;20036;-66
2023/05/19 05:44:03;;;;;;;15.25;8.40;;;24.70;57.30;;;;;;5085571;28;20028;-66
2023/05/19 05:46:31;;;;;;;12.40;7.65;;;24.70;57.60;;;;;;5090032;28;20032;-66
2023/05/19 05:48:58;;;;;;;14.75;8.77;;;24.60;57.70;;;;;;5090332;28;20119;-66
2023/05/19 05:51:24;;;;;;;13.82;8.73;;;24.70;57.60;;;;;;5070951;28;20151;-66
2023/05/19 05:53:55;;;;;;;17.13;8.50;;;24.70;56.80;;;;;;5089924;28;20122;-66
2023/05/19 05:56:28;;;;;;;16.15;7.05;;;24.60;57.50;;;;;;5089336;28;20036;-66
2023/05/19 05:58:55;;;;;;;15.25;8.60;;;24.60;57.50;;;;;;5089584;28;20028;-66
2023/05/19 06:01:22;;;;;;;14.13;7.97;;;24.70;57.30;;;;;;5089500;28;20047;-66
2023/05/19 06:03:49;;;;;;;6.88;4.22;;;24.60;57.50;;;;;;5087066;28;20031;-67
2023/05/19 06:06:19;;;;;;;15.05;8.48;;;24.70;58.20;;;;;;5089616;28;20028;-67
2023/05/19 06:08:45;;;;;;;10.00;6.65;;;24.70;58.40;;;;;;5087131;28;20028;-68
2023/05/19 06:11:11;;;;;;;1.23;0.98;;;24.60;54.40;;;;;;5091599;28;20024;-68
2023/05/19 06:13:42;;;;;;;1.75;1.48;;;24.70;58.20;;;;;;5103128;28;20067;-67
2023/05/19 06:16:14;;;;;;;1.70;1.38;;;24.80;58.70;;;;;;5090956;28;20050;-68
2023/05/19 06:18:44;;;;;;;10.00;6.53;;;25.00;58.10;;;;;;5064545;28;20039;-68
2023/05/19 06:21:12;;;;;;;9.07;6.20;;;24.90;56.80;;;;;;5091271;28;20067;-68
2023/05/19 06:23:39;;;;;;;1.15;1.15;;;25.10;56.60;;;;;;5108862;28;20116;-67
2023/05/19 06:26:07;;;;;;;0.88;0.88;;;25.00;55.10;;;;;;5092915;27;20048;-67
2023/05/19 06:28:33;;;;;;;8.10;3.63;;;25.00;54.60;;;;;;5100908;27;20027;-68
2023/05/19 06:30:59;;;;;;;4.35;3.92;;;25.20;55.00;;;;;;5011607;28;20044;-67
2023/05/19 06:33:42;;;;;;;2.63;2.25;;;25.10;53.90;;;;;;5095119;28;20090;-66
2023/05/19 06:36:08;;;;;;;9.73;6.15;;;25.20;53.80;;;;;;5112324;28;20027;-66
2023/05/19 06:38:36;;;;;;;9.02;4.80;;;25.00;53.20;;;;;;5094949;28;20059;-66
2023/05/19 06:41:03;;;;;;;6.63;4.57;;;25.00;52.90;;;;;;5077549;27;20046;-66
2023/05/19 06:43:29;;;;;;;14.75;8.30;;;25.00;52.40;;;;;;5091317;28;20068;-67
2023/05/19 06:45:57;;;;;;;10.05;4.93;;;25.00;53.00;;;;;;5091633;28;20115;-72
2023/05/19 06:48:25;;;;;;;14.00;7.85;;;25.00;51.00;;;;;;5102044;28;20058;-67
2023/05/19 06:50:51;;;;;;;18.40;8.55;;;25.00;50.40;;;;;;5088583;28;20045;-67
2023/05/19 06:53:20;;;;;;;12.77;6.97;;;25.10;49.20;;;;;;5091045;28;20447;-67
2023/05/19 06:55:49;;;;;;;12.13;8.30;;;25.20;49.90;;;;;;5092025;28;20036;-66
2023/05/19 06:58:17;;;;;;;12.98;8.02;;;25.00;50.50;;;;;;5091958;28;20078;-67
2023/05/19 07:00:43;;;;;;;11.45;7.57;;;25.00;52.30;;;;;;5078131;28;20379;-67
2023/05/19 07:03:11;;;;;;;5.97;4.93;;;25.20;52.80;;;;;;5074674;28;20043;-66
2023/05/19 07:05:37;;;;;;;8.13;4.13;;;25.40;53.40;;;;;;5088589;28;20471;-66
2023/05/19 07:08:04;;;;;;;11.05;7.43;;;25.50;53.60;;;;;;5094037;28;20027;-68
2023/05/19 07:10:31;;;;;;;10.65;7.35;;;25.40;50.90;;;;;;5093563;28;20073;-67
2023/05/19 07:12:57;;;;;;;11.40;6.82;;;25.40;50.60;;;;;;5111789;28;20043;-67
2023/05/19 07:15:27;;;;;;;10.48;6.53;;;25.30;50.30;;;;;;5078534;28;20797;-67
2023/05/19 07:17:53;;;;;;;11.43;7.13;;;25.30;50.60;;;;;;5111506;28;20471;-67
2023/05/19 07:20:19;;;;;;;10.07;7.38;;;25.30;51.20;;;;;;5111709;28;20052;-68
2023/05/19 07:22:45;;;;;;;10.07;5.72;;;25.40;50.20;;;;;;5093931;28;20055;-68
2023/05/19 07:25:11;;;;;;;12.13;7.15;;;25.50;51.20;;;;;;5108614;28;20035;-67
2023/05/19 07:27:38;;;;;;;11.52;7.22;;;25.40;49.90;;;;;;5097017;28;20061;-66
2023/05/19 07:30:05;;;;;;;9.93;6.32;;;25.50;51.70;;;;;;5110246;28;20035;-67
2023/05/19 07:32:31;;;;;;;9.68;7.32;;;25.60;52.60;;;;;;5093741;28;20043;-68
2023/05/19 07:34:57;;;;;;;10.25;6.28;;;25.40;52.10;;;;;;5096173;28;20464;-67
2023/05/19 07:37:23;;;;;;;10.65;6.57;;;25.40;51.80;;;;;;5098582;28;20082;-67
2023/05/19 07:39:49;;;;;;;8.65;6.82;;;25.60;51.30;;;;;;5092932;28;20035;-67
2023/05/19 07:42:15;;;;;;;7.88;5.32;;;25.50;51.40;;;;;;5095838;28;20027;-66
2023/05/19 07:44:41;;;;;;;7.43;6.00;;;25.40;51.80;;;;;;5106767;28;20034;-66
2023/05/19 07:47:07;;;;;;;4.07;3.25;;;25.50;51.90;;;;;;5099633;28;20020;-66
2023/05/19 07:49:33;;;;;;;10.18;6.53;;;25.50;51.90;;;;;;5106367;28;20070;-66
2023/05/19 07:51:59;;;;;;;6.43;5.25;;;25.40;52.00;;;;;;5090164;28;20024;-67
2023/05/19 07:54:25;;;;;;;9.57;5.22;;;25.50;52.30;;;;;;5106468;28;20063;-67
2023/05/19 07:56:51;;;;;;;9.43;6.60;;;25.50;52.20;;;;;;5095915;28;20047;-66
2023/05/19 07:59:19;;;;;;;8.00;4.32;;;25.60;53.00;;;;;;5071382;28;20098;-67
2023/05/19 08:01:45;;;;;;;7.38;4.43;;;25.50;53.40;;;;;;5095285;28;20109;-65
2023/05/19 08:04:11;;;;;;;9.80;4.80;;;25.50;53.40;;;;;;5088793;28;20051;-65
2023/05/19 08:06:37;;;;;;;4.10;2.85;;;25.60;53.40;;;;;;5091261;28;20465;-65
2023/05/19 08:09:04;;;;;;;2.63;2.28;;;25.70;53.00;;;;;;5091812;28;20047;-64
2023/05/19 08:11:30;;;;;;;9.43;5.07;;;25.70;53.50;;;;;;5092741;28;20032;-65
2023/05/19 08:13:56;;;;;;;9.52;6.55;;;25.80;53.60;;;;;;5088820;28;20055;-66
2023/05/19 08:16:23;;;;;;;7.30;5.75;;;25.80;51.60;;;;;;5104713;28;20088;-66
2023/05/19 08:18:49;;;;;;;10.88;5.90;;;25.80;50.70;;;;;;5098547;28;20044;-66
2023/05/19 08:21:15;;;;;;;5.25;4.30;;;25.80;51.10;;;;;;5106659;28;20062;-65
2023/05/19 08:23:41;;;;;;;4.47;4.05;;;25.70;51.60;;;;;;5093670;28;20546;-66
2023/05/19 08:26:07;;;;;;;9.60;6.22;;;25.60;51.60;;;;;;5100979;28;20103;-67
2023/05/19 08:28:33;;;;;;;11.68;6.40;;;25.80;51.60;;;;;;5081207;28;20207;-65
2023/05/19 08:30:59;;;;;;;7.95;6.15;;;25.60;51.90;;;;;;5101260;28;20043;-65
2023/05/19 08:33:25;;;;;;;10.25;5.88;;;25.60;53.60;;;;;;5109872;28;20443;-66
2023/05/19 08:35:51;;;;;;;8.75;6.13;;;25.80;55.20;;;;;;5109050;28;20031;-66
2023/05/19 08:38:17;;;;;;;6.30;5.43;;;25.50;52.90;;;;;;5104030;28;20495;-68
2023/05/19 08:40:46;;;;;;;7.80;4.47;;;25.70;52.60;;;;;;5105312;28;20035;-67
2023/05/19 08:43:12;;;;;;;5.90;5.30;;;25.70;53.00;;;;;;5102681;28;20097;-66
2023/05/19 08:45:47;;;;;;;5.18;4.13;;;25.70;52.70;;;;;;5105447;28;20024;-66
2023/05/19 08:48:15;;;;;;;7.05;5.50;;;25.60;52.20;;;;;;5110852;28;20485;-67
2023/05/19 08:50:57;;;;;;;9.43;5.65;;;25.70;52.50;;;;;;5112610;28;20032;-65
2023/05/19 08:53:30;;;;;;;10.00;4.53;;;25.80;52.10;;;;;;5094175;28;20043;-68
2023/05/19 08:56:13;;;;;;;8.00;5.72;;;25.80;52.20;;;;;;5104438;28;20052;-70
2023/05/19 08:58:42;;;;;;;8.52;5.82;;;25.80;52.50;;;;;;5091041;28;20086;-67
2023/05/19 09:01:18;;;;;;;8.27;5.35;;;25.80;52.10;;;;;;5096312;28;20015;-66
2023/05/19 09:03:45;;;;;;;5.85;4.15;;;25.70;52.00;;;;;;5104096;28;20042;-67
2023/05/19 09:06:12;;;;;;;3.13;2.50;;;25.90;51.60;;;;;;5089925;28;20036;-65
2023/05/19 09:08:39;;;;;;;6.82;4.93;;;25.90;49.50;;;;;;5089826;28;20081;-65
2023/05/19 09:11:06;;;;;;;6.93;4.85;;;25.90;49.90;;;;;;5087976;28;20126;-66
2023/05/19 09:13:32;;;;;;;6.38;5.13;;;26.00;50.10;;;;;;5092012;28;20074;-66
2023/05/19 09:15:59;;;;;;;6.15;5.13;;;26.00;50.20;;;;;;5087183;28;20051;-66
2023/05/19 09:18:25;;;;;;;6.57;4.50;;;26.00;49.30;;;;;;5090371;28;20143;-66
2023/05/19 09:20:59;;;;;;;7.80;5.25;;;26.00;50.50;;;;;;5088655;28;20117;-66
2023/05/19 09:23:32;;;;;;;7.25;5.05;;;25.90;50.50;;;;;;5082208;28;20040;-66
2023/05/19 09:26:06;;;;;;;6.70;4.47;;;26.00;51.60;;;;;;5086165;28;20094;-66
2023/05/19 09:28:34;;;;;;;8.27;5.05;;;26.00;51.20;;;;;;5052312;28;20132;-66
2023/05/19 09:31:04;;;;;;;8.85;4.90;;;26.00;50.30;;;;;;5065607;28;20047;-66
2023/05/19 09:33:33;;;;;;;8.73;4.85;;;26.00;48.90;;;;;;5068919;28;20373;-66
2023/05/19 09:36:00;;;;;;;6.18;3.88;;;26.00;49.10;;;;;;5069283;28;20518;-66
2023/05/19 09:38:26;;;;;;;8.38;4.43;;;26.00;49.80;;;;;;5088782;28;20200;-66
2023/05/19 09:40:56;;;;;;;7.85;4.75;;;26.00;48.90;;;;;;5076418;28;20036;-66
2023/05/19 09:43:22;;;;;;;8.00;3.65;;;26.00;49.40;;;;;;5082687;28;20028;-66
2023/05/19 09:45:53;;;;;;;6.07;3.30;;;26.00;49.90;;;;;;5088621;28;20040;-66
2023/05/19 09:48:19;;;;;;;5.35;4.13;;;26.00;50.00;;;;;;5078658;28;20040;-66
2023/05/19 09:50:47;;;;;;;5.53;4.38;;;26.00;50.00;;;;;;5084058;28;20035;-66
2023/05/19 09:53:13;;;;;;;6.93;4.07;;;26.00;49.80;;;;;;5091377;28;20048;-67
2023/05/19 09:55:41;;;;;;;6.65;5.57;;;26.10;50.30;;;;;;5093703;28;20032;-65
2023/05/19 09:58:08;;;;;;;4.15;2.78;;;26.00;50.40;;;;;;5092219;28;20531;-66
2023/05/19 10:00:36;;;;;;;8.30;4.05;;;26.10;51.40;;;;;;5086091;28;20080;-65
2023/05/19 10:03:04;;;;;;;9.18;5.10;;;26.20;51.40;;;;;;5091088;28;20036;-68
2023/05/19 10:05:31;;;;;;;4.93;4.20;;;26.10;50.90;;;;;;5099800;28;20377;-66
2023/05/19 10:07:57;;;;;;;7.78;4.20;;;26.00;48.70;;;;;;5110271;28;20027;-66
2023/05/19 10:10:25;;;;;;;9.43;4.65;;;26.00;48.20;;;;;;5111432;28;20054;-67
2023/05/19 10:12:53;;;;;;;5.45;4.45;;;26.10;48.90;;;;;;5098560;28;20600;-66
2023/05/19 10:15:19;;;;;;;4.68;4.00;;;26.10;48.20;;;;;;5094344;28;20036;-67
2023/05/19 10:17:45;;;;;;;6.93;4.93;;;26.10;56.50;;;;;;5095072;28;20038;-67
2023/05/19 10:20:13;;;;;;;5.28;4.78;;;26.20;53.00;;;;;;5089582;28;20392;-65
2023/05/19 10:22:41;;;;;;;10.43;5.15;;;26.20;50.10;;;;;;5089640;28;20040;-65
2023/05/19 10:25:08;;;;;;;6.10;4.78;;;26.40;50.20;;;;;;5088781;28;20111;-65
2023/05/19 10:27:37;;;;;;;7.30;5.05;;;26.50;50.90;;;;;;5096752;28;20519;-65
2023/05/19 10:30:09;;;;;;;7.75;4.43;;;26.40;50.40;;;;;;5092190;28;20086;-66
2023/05/19 10:32:39;;;;;;;9.20;5.35;;;26.50;49.20;;;;;;5105239;28;20047;-67
2023/05/19 10:35:35;;;;;;;9.70;4.57;;;26.40;49.00;;;;;;5089084;28;20044;-67
2023/05/19 10:38:32;;;;;;;8.18;5.10;;;26.50;48.60;;;;;;5094752;28;20662;-66
2023/05/19 10:40:58;;;;;;;6.90;5.05;;;26.30;48.30;;;;;;5088347;28;20391;-66
2023/05/19 10:43:29;;;;;;;10.02;5.95;;;26.40;48.40;;;;;;5104817;28;20027;-65
2023/05/19 10:45:56;;;;;;;8.10;5.43;;;26.40;48.60;;;;;;5102816;28;20161;-66
2023/05/19 10:48:22;;;;;;;7.78;5.03;;;26.20;48.60;;;;;;5099824;28;20581;-67
2023/05/19 10:50:53;;;;;;;6.20;4.88;;;26.30;48.60;;;;;;5088551;28;20377;-65
2023/05/19 10:53:21;;;;;;;5.45;4.57;;;26.20;48.80;;;;;;5090606;28;20044;-66
2023/05/19 10:55:55;;;;;;;6.97;4.50;;;26.20;49.30;;;;;;5089620;28;20051;-66
2023/05/19 10:58:39;;;;;;;8.55;4.53;;;26.20;48.90;;;;;;5092629;28;20040;-66
2023/05/19 11:01:12;;;;;;;7.03;4.50;;;26.10;49.40;;;;;;5125107;28;20050;-65
2023/05/19 11:03:51;;;;;;;10.70;5.07;;;26.30;51.60;;;;;;5100996;28;20499;-66
2023/05/19 11:06:27;;;;;;;9.15;4.57;;;26.30;55.80;;;;;;5093425;28;20015;-66
2023/05/19 11:08:56;;;;;;;6.20;4.20;;;26.70;57.40;;;;;;5097530;28;20499;-66
2023/05/19 11:11:22;;;;;;;8.52;5.03;;;27.00;58.40;;;;;;5086931;28;20098;-66
2023/05/19 11:13:55;;;;;;;7.88;4.90;;;27.00;47.80;;;;;;5093286;28;20024;-66
2023/05/19 11:16:33;;;;;;;9.48;4.90;;;26.90;46.50;;;;;;5093224;28;20031;-66
2023/05/19 11:19:00;;;;;;;6.28;5.00;;;26.80;47.20;;;;;;5092147;28;20035;-67
2023/05/19 11:21:45;;;;;;;7.75;4.85;;;26.60;47.00;;;;;;5087301;28;20127;-68
2023/05/19 11:24:31;;;;;;;11.25;4.82;;;26.50;47.10;;;;;;5090992;28;20028;-69
2023/05/19 11:26:57;;;;;;;4.25;3.47;;;26.50;52.80;;;;;;5089780;28;20209;-67
2023/05/19 11:29:23;;;;;;;8.93;4.75;;;26.50;53.10;;;;;;5102464;28;20114;-67
2023/05/19 11:31:51;;;;;;;5.30;4.18;;;26.40;53.50;;;;;;5084302;28;20782;-67
2023/05/19 11:34:18;;;;;;;5.25;3.70;;;26.60;53.60;;;;;;5107382;28;20052;-67
2023/05/19 11:36:44;;;;;;;5.45;3.47;;;26.50;53.80;;;;;;5108062;28;20035;-66
2023/05/19 11:39:11;;;;;;;7.60;4.90;;;26.60;54.10;;;;;;5096488;28;20048;-66
2023/05/19 11:41:40;;;;;;;4.85;4.22;;;26.50;52.80;;;;;;5096112;28;20626;-67
2023/05/19 11:44:10;;;;;;;5.85;4.63;;;26.60;54.10;;;;;;5085748;28;20047;-67
2023/05/19 11:46:37;;;;;;;6.15;3.80;;;26.50;54.30;;;;;;5105979;28;20040;-67
2023/05/19 11:49:04;;;;;;;7.78;4.45;;;26.50;54.50;;;;;;5092960;28;20072;-67
2023/05/19 11:51:31;;;;;;;7.82;4.50;;;26.50;54.50;;;;;;5095653;28;20755;-67
2023/05/19 11:53:57;;;;;;;7.22;4.63;;;26.50;54.70;;;;;;5105745;28;20040;-67
2023/05/19 11:56:23;;;;;;;5.07;3.53;;;26.50;53.80;;;;;;5093462;28;20051;-66
2023/05/19 11:58:52;;;;;;;5.80;3.72;;;26.40;54.60;;;;;;5088822;28;20032;-67
2023/05/19 12:01:24;;;;;;;2.15;1.77;;;26.60;54.90;;;;;;5109724;28;20036;-69
2023/05/19 12:03:50;;;;;;;5.53;3.40;;;26.50;55.10;;;;;;5108236;28;20194;-68
2023/05/19 12:06:16;;;;;;;5.53;3.47;;;26.40;55.10;;;;;;5108628;28;20127;-70
2023/05/19 12:08:43;;;;;;;7.18;3.78;;;26.50;54.50;;;;;;5106361;28;20035;-69
2023/05/19 12:11:10;;;;;;;2.42;2.22;;;26.30;54.20;;;;;;5101105;28;20081;-70
2023/05/19 12:13:36;;;;;;;4.18;1.58;;;26.20;54.50;;;;;;5112312;28;20036;-71
2023/05/19 12:16:03;;;;;;;5.43;3.17;;;26.30;54.30;;;;;;5093005;28;20039;-70
2023/05/19 12:18:32;;;;;;;4.47;3.85;;;26.30;54.30;;;;;;5096428;28;20478;-70
2023/05/19 12:20:58;;;;;;;7.85;3.35;;;26.20;53.90;;;;;;5078451;28;20044;-68
2023/05/19 12:23:25;;;;;;;4.68;3.42;;;26.30;53.90;;;;;;5108969;28;20084;-69
2023/05/19 12:25:52;;;;;;;4.47;3.88;;;26.20;53.80;;;;;;5107924;28;20422;-71
2023/05/19 12:28:18;;;;;;;3.25;3.00;;;26.30;53.60;;;;;;5091724;28;20073;-69
2023/05/19 12:30:50;;;;;;;4.15;2.72;;;26.20;53.60;;;;;;5097816;28;20024;-69
2023/05/19 12:33:21;;;;;;;4.93;3.08;;;26.20;53.30;;;;;;5097427;28;20054;-68
2023/05/19 12:35:48;;;;;;;5.50;3.75;;;26.40;53.10;;;;;;5093416;28;20024;-68
2023/05/19 12:38:15;;;;;;;5.55;3.35;;;26.20;53.10;;;;;;5103170;28;20089;-67
2023/05/19 12:40:44;;;;;;;4.95;3.03;;;26.30;53.30;;;;;;5097518;28;20043;-67
2023/05/19 12:43:22;;;;;;;4.30;3.40;;;26.20;53.30;;;;;;5103980;28;20116;-67
2023/05/19 12:45:48;;;;;;;2.55;1.60;;;26.20;53.30;;;;;;5097437;28;20028;-70
2023/05/19 12:48:15;;;;;;;8.45;3.83;;;26.20;53.30;;;;;;5109352;28;20424;-68
2023/05/19 12:50:43;;;;;;;4.82;4.18;;;26.10;53.30;;;;;;5111508;28;20035;-68